createdAt,value
2022-09-17T00:01:05.050Z,7.33
2022-09-17T00:03:34.191Z,7.32
2022-09-17T00:06:01.750Z,7.34
2022-09-17T00:08:28.527Z,7.33
2022-09-17T00:10:54.971Z,7.31
2022-09-17T00:13:21.638Z,7.34
2022-09-17T00:15:48.408Z,7.30
2022-09-17T00:18:15.062Z,7.30
2022-09-17T00:20:44.046Z,7.32
2022-09-17T00:23:11.356Z,7.39
2022-09-17T00:25:39.938Z,7.32
2022-09-17T00:28:06.349Z,7.42
2022-09-17T00:30:32.789Z,7.36
2022-09-17T00:32:59.282Z,7.31
2022-09-17T00:35:27.065Z,7.36
2022-09-17T00:37:53.976Z,7.34
2022-09-17T00:40:20.747Z,7.36
2022-09-17T00:42:47.222Z,7.35
2022-09-17T00:45:14.160Z,7.30
2022-09-17T00:47:45.883Z,7.27
2022-09-17T00:50:19.512Z,7.23
2022-09-17T00:52:50.668Z,7.23
2022-09-17T00:55:23.136Z,7.29
2022-09-17T00:57:52.041Z,7.20
2022-09-17T01:00:19.460Z,7.17
2022-09-17T01:02:45.917Z,7.22
2022-09-17T01:05:13.786Z,7.24
2022-09-17T01:07:57.517Z,7.27
2022-09-17T01:10:35.970Z,7.24
2022-09-17T01:13:17.266Z,7.30
2022-09-17T01:15:52.910Z,7.30
2022-09-17T01:18:28.955Z,7.31
2022-09-17T01:21:28.583Z,7.33
2022-09-17T01:24:17.407Z,7.29
2022-09-17T01:26:49.890Z,7.35
2022-09-17T01:29:39.141Z,7.37
2022-09-17T01:32:15.466Z,7.34
2022-09-17T01:34:53.782Z,7.28
2022-09-17T01:37:55.285Z,7.39
2022-09-17T01:40:28.509Z,7.38
2022-09-17T01:43:21.469Z,7.41
2022-09-17T01:45:53.504Z,7.36
2022-09-17T01:48:23.761Z,7.43
2022-09-17T01:51:06.423Z,7.47
2022-09-17T01:53:58.959Z,7.50
2022-09-17T01:56:31.940Z,7.52
2022-09-17T01:59:04.605Z,7.42
2022-09-17T02:01:33.981Z,7.51
2022-09-17T02:04:09.526Z,7.48
2022-09-17T02:06:44.364Z,7.47
2022-09-17T02:09:16.781Z,7.53
2022-09-17T02:11:50.544Z,7.50
2022-09-17T02:14:23.119Z,7.56
2022-09-17T02:16:55.351Z,7.58
2022-09-17T02:19:27.674Z,7.48
2022-09-17T02:22:21.752Z,7.57
2022-09-17T02:25:01.150Z,7.55
2022-09-17T02:28:06.023Z,7.54
2022-09-17T02:30:32.440Z,7.49
2022-09-17T02:33:01.255Z,7.55
2022-09-17T02:35:27.604Z,7.53
2022-09-17T02:37:54.015Z,7.55
2022-09-17T02:40:27.835Z,7.45
2022-09-17T02:43:27.481Z,7.55
2022-09-17T02:46:09.947Z,7.59
2022-09-17T02:49:10.314Z,7.55
2022-09-17T02:51:53.454Z,7.55
2022-09-17T02:54:29.123Z,7.57
2022-09-17T02:57:19.780Z,7.57
2022-09-17T03:00:03.130Z,7.46
2022-09-17T03:02:38.558Z,7.50
2022-09-17T03:05:07.394Z,7.52
2022-09-17T03:07:33.960Z,7.54
2022-09-17T03:10:00.677Z,7.53
2022-09-17T03:12:27.376Z,7.53
2022-09-17T03:14:53.760Z,7.60
2022-09-17T03:17:20.086Z,7.66
2022-09-17T03:19:46.457Z,7.65
2022-09-17T03:22:12.805Z,7.63
2022-09-17T03:24:39.277Z,7.58
2022-09-17T03:27:05.720Z,7.60
2022-09-17T03:29:32.056Z,7.58
2022-09-17T03:31:58.519Z,7.65
2022-09-17T03:34:24.874Z,7.67
2022-09-17T03:36:51.246Z,7.63
2022-09-17T03:39:17.625Z,7.63
2022-09-17T03:41:43.937Z,7.66
2022-09-17T03:44:13.202Z,7.69
2022-09-17T03:46:39.581Z,7.69
2022-09-17T03:49:05.944Z,7.68
2022-09-17T03:51:32.279Z,7.63
2022-09-17T03:53:58.662Z,7.63
2022-09-17T03:56:26.602Z,7.67
2022-09-17T03:58:57.570Z,7.66
2022-09-17T04:01:23.980Z,7.68
2022-09-17T04:03:50.360Z,7.58
2022-09-17T04:06:16.675Z,7.66
2022-09-17T04:08:43.611Z,7.61
2022-09-17T04:11:10.094Z,7.68
2022-09-17T04:13:36.623Z,7.69
2022-09-17T04:16:03.423Z,7.63
2022-09-17T04:18:29.875Z,7.67
2022-09-17T04:20:56.454Z,7.68
2022-09-17T04:23:23.378Z,7.59
2022-09-17T04:25:49.710Z,7.65
2022-09-17T04:28:16.406Z,7.66
2022-09-17T04:30:45.625Z,7.67
2022-09-17T04:33:11.959Z,7.66
2022-09-17T04:35:38.301Z,7.69
2022-09-17T04:38:04.684Z,7.66
2022-09-17T04:40:31.172Z,7.64
2022-09-17T04:42:59.763Z,7.58
2022-09-17T04:45:26.527Z,7.66
2022-09-17T04:47:52.866Z,7.73
2022-09-17T04:50:19.907Z,7.70
2022-09-17T04:52:46.696Z,7.73
2022-09-17T04:55:13.904Z,7.70
2022-09-17T05:01:27.340Z,7.74
2022-09-17T05:03:53.856Z,7.73
2022-09-17T05:06:20.183Z,7.79
2022-09-17T05:08:46.525Z,7.79
2022-09-17T05:11:13.427Z,7.82
2022-09-17T05:13:39.774Z,7.80
2022-09-17T05:16:06.131Z,7.76
2022-09-17T05:18:32.524Z,7.78
2022-09-17T05:24:39.759Z,7.84
2022-09-17T05:27:07.310Z,7.86
2022-09-17T05:29:33.716Z,7.84
2022-09-17T05:32:00.040Z,7.83
2022-09-17T05:34:26.407Z,7.91
2022-09-17T05:36:52.745Z,7.86
2022-09-17T05:39:21.304Z,7.93
2022-09-17T05:41:47.624Z,7.87
2022-09-17T05:44:17.996Z,7.96
2022-09-17T05:50:25.949Z,8.01
2022-09-17T05:56:39.127Z,8.03
2022-09-17T05:59:05.544Z,8.08
2022-09-17T06:01:32.259Z,8.07
2022-09-17T06:03:58.705Z,8.09
2022-09-17T06:06:25.083Z,8.15
2022-09-17T06:08:51.507Z,8.23
2022-09-17T06:11:17.850Z,8.20
2022-09-17T06:13:44.283Z,8.23
2022-09-17T06:16:10.752Z,8.20
2022-09-17T06:18:37.171Z,8.20
2022-09-17T06:21:05.478Z,8.31
2022-09-17T06:23:35.214Z,8.35
2022-09-17T06:26:02.796Z,8.21
2022-09-17T06:28:29.662Z,8.42
2022-09-17T06:31:00.887Z,8.42
2022-09-17T06:33:27.830Z,8.39
2022-09-17T06:36:01.718Z,8.40
2022-09-17T06:38:29.024Z,8.48
2022-09-17T06:40:56.124Z,8.49
2022-09-17T06:43:23.100Z,8.49
2022-09-17T06:45:53.431Z,8.60
2022-09-17T06:48:20.919Z,8.58
2022-09-17T06:50:47.389Z,8.65
2022-09-17T06:53:14.052Z,8.60
2022-09-17T06:55:40.782Z,8.70
2022-09-17T06:58:07.192Z,8.82
2022-09-17T07:00:33.927Z,8.79
2022-09-17T07:03:01.228Z,9.03
2022-09-17T07:05:29.895Z,9.24
2022-09-17T07:07:56.335Z,9.34
2022-09-17T07:10:26.834Z,9.37
2022-09-17T07:12:54.582Z,9.40
2022-09-17T07:15:21.447Z,9.44
2022-09-17T07:17:48.177Z,9.50
2022-09-17T07:20:15.402Z,9.60
2022-09-17T07:22:41.792Z,9.64
2022-09-17T07:25:08.807Z,9.59
2022-09-17T07:27:35.144Z,9.55
2022-09-17T07:30:01.727Z,9.46
2022-09-17T07:32:30.732Z,9.45
2022-09-17T07:34:57.314Z,9.40
2022-09-17T07:37:23.742Z,9.40
2022-09-17T07:39:50.352Z,9.40
2022-09-17T07:42:16.709Z,9.51
2022-09-17T07:44:43.114Z,9.43
2022-09-17T07:47:09.959Z,9.56
2022-09-17T07:49:36.300Z,9.44
2022-09-17T07:52:06.273Z,9.45
2022-09-17T07:54:37.301Z,9.51
2022-09-17T07:57:04.685Z,9.46
2022-09-17T07:59:31.275Z,9.46
2022-09-17T08:01:57.689Z,9.46
2022-09-17T08:04:24.090Z,9.59
2022-09-17T08:06:50.440Z,9.59
2022-09-17T08:09:18.485Z,9.67
2022-09-17T08:11:55.483Z,9.77
2022-09-17T08:14:27.011Z,9.75
2022-09-17T08:16:55.701Z,9.73
2022-09-17T08:19:22.193Z,9.84
2022-09-17T08:21:48.598Z,9.84
2022-09-17T08:24:14.931Z,10.00
2022-09-17T08:26:41.738Z,10.07
2022-09-17T08:29:08.153Z,10.17
2022-09-17T08:31:34.694Z,10.29
2022-09-17T08:34:01.263Z,10.37
2022-09-17T08:36:27.868Z,10.53
2022-09-17T08:38:56.113Z,10.42
2022-09-17T08:41:41.432Z,10.45
2022-09-17T08:44:21.257Z,10.32
2022-09-17T08:46:51.903Z,10.37
2022-09-17T08:49:30.874Z,10.35
2022-09-17T08:52:30.110Z,10.42
2022-09-17T08:55:18.293Z,10.58
2022-09-17T08:57:48.672Z,10.66
2022-09-17T09:00:23.409Z,10.59
2022-09-17T09:03:28.174Z,10.68
2022-09-17T09:05:57.956Z,10.70
2022-09-17T09:08:35.350Z,10.55
2022-09-17T09:11:04.760Z,10.40
2022-09-17T09:13:40.496Z,10.32
2022-09-17T09:16:14.306Z,10.20
2022-09-17T09:18:44.241Z,10.00
2022-09-17T09:21:28.257Z,9.94
2022-09-17T09:24:26.237Z,9.46
2022-09-17T09:27:12.479Z,9.13
2022-09-17T09:29:53.976Z,9.01
2022-09-17T09:32:28.693Z,8.95
2022-09-17T09:34:57.636Z,8.82
2022-09-17T09:37:28.049Z,8.90
2022-09-17T09:40:00.717Z,8.92
2022-09-17T09:42:34.614Z,8.87
2022-09-17T09:45:12.366Z,8.84
2022-09-17T09:47:57.462Z,8.88
2022-09-17T09:51:04.727Z,8.93
2022-09-17T09:54:01.847Z,8.95
2022-09-17T09:56:46.731Z,9.02
2022-09-17T09:59:13.306Z,9.03
2022-09-17T10:01:42.760Z,9.06
2022-09-17T10:04:23.009Z,9.08
2022-09-17T10:06:52.141Z,9.07
2022-09-17T10:09:21.914Z,9.14
2022-09-17T10:12:03.312Z,9.18
2022-09-17T10:14:34.156Z,9.26
2022-09-17T10:17:23.014Z,9.30
2022-09-17T10:20:06.037Z,9.35
2022-09-17T10:22:35.019Z,9.39
2022-09-17T10:25:03.640Z,9.44
2022-09-17T10:27:31.046Z,9.55
2022-09-17T10:30:09.561Z,9.64
2022-09-17T10:32:35.976Z,9.74
2022-09-17T10:35:23.692Z,9.93
2022-09-17T10:37:52.432Z,10.08
2022-09-17T10:40:18.850Z,10.23
2022-09-17T10:42:49.755Z,10.34
2022-09-17T10:45:27.431Z,10.40
2022-09-17T10:47:55.945Z,10.39
2022-09-17T10:50:34.362Z,10.49
2022-09-17T10:53:04.403Z,10.52
2022-09-17T10:55:38.336Z,10.53
2022-09-17T10:58:07.767Z,10.69
2022-09-17T11:01:11.880Z,10.79
2022-09-17T11:03:56.297Z,10.89
2022-09-17T11:06:37.871Z,10.91
2022-09-17T11:09:12.814Z,10.98
2022-09-17T11:11:46.802Z,11.15
2022-09-17T11:14:49.353Z,11.38
2022-09-17T11:17:43.117Z,11.48
2022-09-17T11:24:06.043Z,11.51
2022-09-17T11:26:59.838Z,11.39
2022-09-17T11:29:53.979Z,11.43
2022-09-17T11:32:38.634Z,11.35
2022-09-17T11:35:15.534Z,11.37
2022-09-17T11:38:17.928Z,11.44
2022-09-17T11:40:50.094Z,11.37
2022-09-17T11:43:37.492Z,11.54
2022-09-17T11:46:22.704Z,11.62
2022-09-17T11:48:54.967Z,11.76
2022-09-17T11:51:36.700Z,11.84
2022-09-17T11:54:06.665Z,11.86
2022-09-17T11:56:43.451Z,11.90
2022-09-17T11:59:43.364Z,11.95
2022-09-17T12:02:09.664Z,12.04
2022-09-17T12:04:54.678Z,12.16
2022-09-17T12:07:30.146Z,12.37
2022-09-17T12:10:03.428Z,12.39
2022-09-17T12:12:50.071Z,12.31
2022-09-17T12:15:26.890Z,12.15
2022-09-17T12:18:32.704Z,12.27
2022-09-17T12:21:02.462Z,12.46
2022-09-17T12:23:44.695Z,12.53
2022-09-17T12:26:46.631Z,12.55
2022-09-17T12:29:34.364Z,12.56
2022-09-17T12:32:10.875Z,12.54
2022-09-17T12:34:53.425Z,12.48
2022-09-17T12:37:31.813Z,12.47
2022-09-17T12:40:15.122Z,12.32
2022-09-17T12:42:47.962Z,12.21
2022-09-17T12:45:19.623Z,12.10
2022-09-17T12:48:12.328Z,11.97
2022-09-17T12:50:46.364Z,11.74
2022-09-17T12:53:41.326Z,11.54
2022-09-17T12:56:25.988Z,11.37
2022-09-17T12:59:15.947Z,11.00
2022-09-17T13:01:55.806Z,10.86
2022-09-17T13:04:59.969Z,10.79
2022-09-17T13:07:41.852Z,10.75
2022-09-17T13:10:40.783Z,10.83
2022-09-17T13:13:07.040Z,10.95
2022-09-17T13:19:33.400Z,10.97
2022-09-17T13:22:07.334Z,10.94
2022-09-17T13:24:34.890Z,10.95
2022-09-17T13:27:03.838Z,11.05
2022-09-17T13:29:45.180Z,11.10
2022-09-17T13:32:33.613Z,11.13
2022-09-17T13:35:17.957Z,11.32
2022-09-17T13:37:53.620Z,11.31
2022-09-17T13:40:23.208Z,11.29
2022-09-17T13:42:55.430Z,11.53
2022-09-17T13:45:23.628Z,11.56
2022-09-17T13:47:55.871Z,11.68
2022-09-17T13:50:32.381Z,11.65
2022-09-17T13:53:16.888Z,11.69
2022-09-17T13:55:58.603Z,11.82
2022-09-17T13:58:28.985Z,11.90
2022-09-17T14:01:05.494Z,11.91
2022-09-17T14:03:34.025Z,12.14
2022-09-17T14:06:09.522Z,12.02
2022-09-17T14:08:45.145Z,11.99
2022-09-17T14:11:23.496Z,11.92
2022-09-17T14:13:55.175Z,11.98
2022-09-17T14:16:42.479Z,12.07
2022-09-17T14:19:30.363Z,12.02
2022-09-17T14:22:02.476Z,12.00
2022-09-17T14:24:45.878Z,11.97
2022-09-17T14:27:30.428Z,11.94
2022-09-17T14:30:03.182Z,12.03
2022-09-17T14:32:54.233Z,11.90
2022-09-17T14:35:50.738Z,11.80
2022-09-17T14:38:39.672Z,11.68
2022-09-17T14:41:17.804Z,11.71
2022-09-17T14:43:49.842Z,11.65
2022-09-17T14:46:21.939Z,11.52
2022-09-17T14:48:48.713Z,11.35
2022-09-17T14:51:18.014Z,11.25
2022-09-17T14:54:05.595Z,11.10
2022-09-17T14:56:42.521Z,10.92
2022-09-17T14:59:20.223Z,10.90
2022-09-17T15:01:48.065Z,10.83
2022-09-17T15:04:14.371Z,10.93
2022-09-17T15:06:42.418Z,10.87
2022-09-17T15:09:25.460Z,10.95
2022-09-17T15:11:55.540Z,10.81
2022-09-17T15:14:27.554Z,10.88
2022-09-17T15:16:56.271Z,10.83
2022-09-17T15:19:31.003Z,10.77
2022-09-17T15:21:58.223Z,10.75
2022-09-17T15:25:01.784Z,10.74
2022-09-17T15:27:36.948Z,10.68
2022-09-17T15:30:09.303Z,10.72
2022-09-17T15:32:36.207Z,10.82
2022-09-17T15:35:32.968Z,10.92
2022-09-17T15:38:22.407Z,10.88
2022-09-17T15:40:50.554Z,11.15
2022-09-17T15:43:35.540Z,11.15
2022-09-17T15:46:29.566Z,11.19
2022-09-17T15:49:02.074Z,11.27
2022-09-17T15:51:38.825Z,11.25
2022-09-17T15:54:06.689Z,11.10
2022-09-17T15:56:35.578Z,11.05
2022-09-17T15:59:26.449Z,11.11
2022-09-17T16:01:55.979Z,10.95
2022-09-17T16:04:27.920Z,10.80
2022-09-17T16:06:58.613Z,10.67
2022-09-17T16:09:52.190Z,10.63
2022-09-17T16:12:23.561Z,10.49
2022-09-17T16:14:57.664Z,10.49
2022-09-17T16:17:34.315Z,10.41
2022-09-17T16:20:06.481Z,10.22
2022-09-17T16:22:33.163Z,10.18
2022-09-17T16:24:59.504Z,10.11
2022-09-17T16:27:30.140Z,10.05
2022-09-17T16:30:02.858Z,10.04
2022-09-17T16:32:29.176Z,10.08
2022-09-17T16:34:55.906Z,9.93
2022-09-17T16:37:22.280Z,9.97
2022-09-17T16:39:48.954Z,9.84
2022-09-17T16:42:15.288Z,9.93
2022-09-17T16:44:41.611Z,9.93
2022-09-17T16:47:07.956Z,9.81
2022-09-17T16:49:34.526Z,9.84
2022-09-17T16:52:01.006Z,9.75
2022-09-17T16:54:27.518Z,9.77
2022-09-17T16:56:53.930Z,9.82
2022-09-17T16:59:20.248Z,9.70
2022-09-17T17:01:49.992Z,9.91
2022-09-17T17:04:16.643Z,9.87
2022-09-17T17:06:43.034Z,9.94
2022-09-17T17:09:09.876Z,9.96
2022-09-17T17:11:36.218Z,10.02
2022-09-17T17:14:05.171Z,9.92
2022-09-17T17:16:31.613Z,9.96
2022-09-17T17:18:57.983Z,9.94
2022-09-17T17:21:24.437Z,9.94
2022-09-17T17:23:50.775Z,9.89
2022-09-17T17:26:17.371Z,9.88
2022-09-17T17:28:44.105Z,9.74
2022-09-17T17:31:11.672Z,9.79
2022-09-17T17:33:38.093Z,9.81
2022-09-17T17:36:08.219Z,9.67
2022-09-17T17:38:35.958Z,9.69
2022-09-17T17:41:13.677Z,9.48
2022-09-17T17:43:40.795Z,9.36
2022-09-17T17:46:09.506Z,9.34
2022-09-17T17:48:36.445Z,9.22
2022-09-17T17:51:05.243Z,9.25
2022-09-17T17:53:31.923Z,9.23
2022-09-17T17:56:00.550Z,9.05
2022-09-17T17:58:27.349Z,9.09
2022-09-17T18:00:53.812Z,9.00
2022-09-17T18:03:24.774Z,8.87
2022-09-17T18:05:58.468Z,8.84
2022-09-17T18:08:25.371Z,8.83
2022-09-17T18:10:56.565Z,8.73
2022-09-17T18:13:23.923Z,8.71
2022-09-17T18:15:55.421Z,8.66
2022-09-17T18:18:29.949Z,8.60
2022-09-17T18:21:00.603Z,8.59
2022-09-17T18:23:27.436Z,8.46
2022-09-17T18:25:58.284Z,8.40
2022-09-17T18:28:24.888Z,8.28
2022-09-17T18:30:51.350Z,8.42
2022-09-17T18:33:20.081Z,8.35
2022-09-17T18:35:47.377Z,8.24
2022-09-17T18:38:15.437Z,8.21
2022-09-17T18:40:42.633Z,8.13
2022-09-17T18:43:09.336Z,8.13
2022-09-17T18:45:35.809Z,8.16
2022-09-17T18:48:05.109Z,8.08
2022-09-17T18:50:31.555Z,8.14
2022-09-17T18:52:58.089Z,8.13
2022-09-17T18:55:24.525Z,8.03
2022-09-17T18:57:52.069Z,8.07
2022-09-17T19:00:20.367Z,8.08
2022-09-17T19:02:50.180Z,8.05
2022-09-17T19:05:17.413Z,8.08
2022-09-17T19:07:47.402Z,8.07
2022-09-17T19:10:15.097Z,8.04
2022-09-17T19:12:42.258Z,8.07
2022-09-17T19:15:09.929Z,7.99
2022-09-17T19:17:36.463Z,8.06
2022-09-17T19:20:04.013Z,8.07
2022-09-17T19:22:31.329Z,8.06
2022-09-17T19:24:57.667Z,8.07
2022-09-17T19:27:24.030Z,8.15
2022-09-17T19:29:50.425Z,8.15
2022-09-17T19:32:16.796Z,8.25
2022-09-17T19:34:43.195Z,8.24
2022-09-17T19:37:09.558Z,8.28
2022-09-17T19:39:36.037Z,8.08
2022-09-17T19:42:02.406Z,8.09
2022-09-17T19:44:29.542Z,8.03
2022-09-17T19:50:53.803Z,7.96
2022-09-17T19:53:20.944Z,8.05
2022-09-17T19:55:47.375Z,8.00
2022-09-17T19:58:14.543Z,8.05
2022-09-17T20:00:40.886Z,8.02
2022-09-17T20:03:08.727Z,8.00
2022-09-17T20:05:35.449Z,7.91
2022-09-17T20:08:03.255Z,7.94
2022-09-17T20:10:32.360Z,7.97
2022-09-17T20:12:59.026Z,8.01
2022-09-17T20:15:25.404Z,8.07
2022-09-17T20:17:52.062Z,8.08
2022-09-17T20:20:18.423Z,7.94
2022-09-17T20:22:44.762Z,7.94
2022-09-17T20:25:11.093Z,8.00
2022-09-17T20:27:37.446Z,7.94
2022-09-17T20:30:03.950Z,8.04
2022-09-17T20:32:30.299Z,8.04
2022-09-17T20:34:56.820Z,8.09
2022-09-17T20:37:55.401Z,7.99
2022-09-17T20:40:09.927Z,8.12
2022-09-17T20:42:36.293Z,8.17
2022-09-17T20:45:02.633Z,8.18
2022-09-17T20:47:28.985Z,8.06
2022-09-17T20:49:55.452Z,8.11
2022-09-17T20:52:21.777Z,8.10
2022-09-17T20:54:48.119Z,8.10
2022-09-17T20:57:14.445Z,8.15
2022-09-17T20:59:53.190Z,8.19
2022-09-17T21:02:22.083Z,8.26
2022-09-17T21:04:51.360Z,8.21
2022-09-17T21:07:17.877Z,8.24
2022-09-17T21:09:44.469Z,8.19
2022-09-17T21:12:11.732Z,8.26
2022-09-17T21:14:38.600Z,8.31
2022-09-17T21:17:05.491Z,8.20
2022-09-17T21:19:31.863Z,8.22
2022-09-17T21:21:58.425Z,8.30
2022-09-17T21:24:24.776Z,8.22
2022-09-17T21:26:53.168Z,8.21
2022-09-17T21:29:19.631Z,8.23
2022-09-17T21:31:46.027Z,8.16
2022-09-17T21:34:13.565Z,8.21
2022-09-17T21:36:41.529Z,8.30
2022-09-17T21:39:14.620Z,8.25
2022-09-17T21:41:42.924Z,8.39
2022-09-17T21:44:11.590Z,8.38
2022-09-17T21:46:38.771Z,8.34
2022-09-17T21:49:05.717Z,8.37
2022-09-17T21:51:37.592Z,8.39
2022-09-17T21:54:16.703Z,8.34
2022-09-17T21:56:44.670Z,8.34
2022-09-17T21:59:13.581Z,8.37
2022-09-17T22:01:46.643Z,8.43
2022-09-17T22:04:16.364Z,8.51
2022-09-17T22:06:44.086Z,8.41
2022-09-17T22:09:17.468Z,8.59
2022-09-17T22:11:43.822Z,8.49
2022-09-17T22:14:12.795Z,8.51
2022-09-17T22:16:41.730Z,8.52
2022-09-17T22:19:09.670Z,8.48
2022-09-17T22:21:39.107Z,8.51
2022-09-17T22:24:06.313Z,8.57
2022-09-17T22:26:35.369Z,8.51
2022-09-17T22:29:03.996Z,8.54
2022-09-17T22:31:30.523Z,8.59
2022-09-17T22:47:47.384Z,8.44
2022-09-17T22:50:13.796Z,8.63
2022-09-17T22:52:40.141Z,8.56
2022-09-17T22:55:06.623Z,8.53
2022-09-17T22:57:32.991Z,8.63
2022-09-17T22:59:59.345Z,8.51
2022-09-17T23:02:25.745Z,8.53
2022-09-17T23:04:52.731Z,8.54
2022-09-17T23:07:19.097Z,8.55
2022-09-17T23:09:45.441Z,8.58
2022-09-17T23:12:11.875Z,8.56
2022-09-17T23:14:38.238Z,8.42
2022-09-17T23:17:04.602Z,8.50
2022-09-17T23:19:30.960Z,8.47
2022-09-17T23:21:57.300Z,8.57
2022-09-17T23:24:23.780Z,8.49
2022-09-17T23:26:50.418Z,8.44
2022-09-17T23:29:17.236Z,8.48
2022-09-17T23:31:43.633Z,8.40
2022-09-17T23:34:09.995Z,8.40
2022-09-17T23:36:38.629Z,8.49
2022-09-17T23:39:07.398Z,8.46
2022-09-17T23:41:42.371Z,8.41
2022-09-17T23:44:14.789Z,8.41
2022-09-17T23:46:42.344Z,8.37
2022-09-17T23:49:11.479Z,8.44
2022-09-17T23:51:37.852Z,8.50
2022-09-17T23:54:07.467Z,8.40
2022-09-17T23:56:34.871Z,8.45
2022-09-17T23:59:02.222Z,8.48
